sensor_id;sensor_type;location;lat;lon;timestamp;P1;durP1;ratioP1;P2;durP2;ratioP2
11988;SDS011;6054;50.966;7.094;2023-02-02T00:01:17;15.77;;;4.32;;
11988;SDS011;6054;50.966;7.094;2023-02-02T00:03:45;11.90;;;3.58;;
11988;SDS011;6054;50.966;7.094;2023-02-02T00:06:12;16.35;;;3.78;;
11988;SDS011;6054;50.966;7.094;2023-02-02T00:08:40;15.18;;;3.40;;
11988;SDS011;6054;50.966;7.094;2023-02-02T00:11:07;9.85;;;3.78;;
11988;SDS011;6054;50.966;7.094;2023-02-02T00:13:33;18.40;;;3.97;;
11988;SDS011;6054;50.966;7.094;2023-02-02T00:19:03;20.05;;;4.53;;
11988;SDS011;6054;50.966;7.094;2023-02-02T00:21:32;17.75;;;4.05;;
11988;SDS011;6054;50.966;7.094;2023-02-02T00:23:58;13.55;;;3.70;;
11988;SDS011;6054;50.966;7.094;2023-02-02T00:26:25;13.02;;;3.53;;
11988;SDS011;6054;50.966;7.094;2023-02-02T00:28:52;14.10;;;3.97;;
11988;SDS011;6054;50.966;7.094;2023-02-02T00:31:19;12.88;;;3.85;;
11988;SDS011;6054;50.966;7.094;2023-02-02T00:33:47;8.80;;;3.38;;
11988;SDS011;6054;50.966;7.094;2023-02-02T00:36:15;16.10;;;4.05;;
11988;SDS011;6054;50.966;7.094;2023-02-02T00:38:42;15.00;;;4.07;;
11988;SDS011;6054;50.966;7.094;2023-02-02T00:41:09;10.77;;;3.70;;
11988;SDS011;6054;50.966;7.094;2023-02-02T00:43:36;14.05;;;3.70;;
11988;SDS011;6054;50.966;7.094;2023-02-02T00:46:03;14.90;;;3.85;;
11988;SDS011;6054;50.966;7.094;2023-02-02T00:48:29;10.63;;;3.75;;
11988;SDS011;6054;50.966;7.094;2023-02-02T00:50:57;17.23;;;3.92;;
11988;SDS011;6054;50.966;7.094;2023-02-02T00:53:26;14.98;;;4.03;;
11988;SDS011;6054;50.966;7.094;2023-02-02T00:55:52;14.98;;;3.97;;
11988;SDS011;6054;50.966;7.094;2023-02-02T00:58:19;13.73;;;3.67;;
11988;SDS011;6054;50.966;7.094;2023-02-02T01:00:46;16.33;;;3.40;;
11988;SDS011;6054;50.966;7.094;2023-02-02T01:03:13;16.20;;;4.45;;
11988;SDS011;6054;50.966;7.094;2023-02-02T01:05:40;15.77;;;3.85;;
11988;SDS011;6054;50.966;7.094;2023-02-02T01:08:09;14.40;;;3.92;;
11988;SDS011;6054;50.966;7.094;2023-02-02T01:10:36;13.93;;;4.18;;
11988;SDS011;6054;50.966;7.094;2023-02-02T01:13:02;14.88;;;3.38;;
11988;SDS011;6054;50.966;7.094;2023-02-02T01:15:29;17.65;;;3.80;;
11988;SDS011;6054;50.966;7.094;2023-02-02T01:17:56;15.10;;;3.53;;
11988;SDS011;6054;50.966;7.094;2023-02-02T01:20:23;16.02;;;3.80;;
11988;SDS011;6054;50.966;7.094;2023-02-02T01:22:49;14.68;;;2.97;;
11988;SDS011;6054;50.966;7.094;2023-02-02T01:25:18;12.75;;;4.10;;
11988;SDS011;6054;50.966;7.094;2023-02-02T01:27:44;15.68;;;4.32;;
11988;SDS011;6054;50.966;7.094;2023-02-02T01:30:11;13.95;;;3.83;;
11988;SDS011;6054;50.966;7.094;2023-02-02T01:32:38;12.98;;;3.67;;
11988;SDS011;6054;50.966;7.094;2023-02-02T01:35:05;16.20;;;3.88;;
11988;SDS011;6054;50.966;7.094;2023-02-02T01:37:34;16.55;;;3.58;;
11988;SDS011;6054;50.966;7.094;2023-02-02T01:40:01;13.48;;;3.40;;
11988;SDS011;6054;50.966;7.094;2023-02-02T01:42:29;16.15;;;4.53;;
11988;SDS011;6054;50.966;7.094;2023-02-02T01:47:47;14.75;;;3.70;;
11988;SDS011;6054;50.966;7.094;2023-02-02T01:50:17;20.35;;;4.10;;
11988;SDS011;6054;50.966;7.094;2023-02-02T01:52:47;14.70;;;4.20;;
11988;SDS011;6054;50.966;7.094;2023-02-02T01:55:17;19.83;;;4.70;;
11988;SDS011;6054;50.966;7.094;2023-02-02T01:57:49;12.52;;;4.00;;
11988;SDS011;6054;50.966;7.094;2023-02-02T02:00:18;16.17;;;4.30;;
11988;SDS011;6054;50.966;7.094;2023-02-02T02:02:48;14.60;;;4.60;;
11988;SDS011;6054;50.966;7.094;2023-02-02T02:05:20;24.15;;;5.43;;
11988;SDS011;6054;50.966;7.094;2023-02-02T02:07:50;16.58;;;4.68;;
11988;SDS011;6054;50.966;7.094;2023-02-02T02:10:20;16.67;;;5.32;;
11988;SDS011;6054;50.966;7.094;2023-02-02T02:12:48;19.77;;;5.25;;
11988;SDS011;6054;50.966;7.094;2023-02-02T02:15:16;22.38;;;5.38;;
11988;SDS011;6054;50.966;7.094;2023-02-02T02:18:03;20.20;;;5.78;;
11988;SDS011;6054;50.966;7.094;2023-02-02T02:20:56;21.88;;;6.30;;
11988;SDS011;6054;50.966;7.094;2023-02-02T02:27:25;27.33;;;5.50;;
11988;SDS011;6054;50.966;7.094;2023-02-02T02:30:20;16.85;;;4.40;;
11988;SDS011;6054;50.966;7.094;2023-02-02T02:33:08;15.40;;;4.63;;
11988;SDS011;6054;50.966;7.094;2023-02-02T02:35:47;17.38;;;4.45;;
11988;SDS011;6054;50.966;7.094;2023-02-02T02:38:24;20.00;;;5.22;;
11988;SDS011;6054;50.966;7.094;2023-02-02T02:40:56;17.67;;;4.63;;
11988;SDS011;6054;50.966;7.094;2023-02-02T02:43:28;17.60;;;4.47;;
11988;SDS011;6054;50.966;7.094;2023-02-02T02:45:58;18.05;;;4.20;;
11988;SDS011;6054;50.966;7.094;2023-02-02T02:48:26;16.55;;;4.57;;
11988;SDS011;6054;50.966;7.094;2023-02-02T02:51:03;18.60;;;4.22;;
11988;SDS011;6054;50.966;7.094;2023-02-02T02:53:31;22.75;;;4.75;;
11988;SDS011;6054;50.966;7.094;2023-02-02T02:56:00;18.65;;;4.68;;
11988;SDS011;6054;50.966;7.094;2023-02-02T02:58:35;21.48;;;4.25;;
11988;SDS011;6054;50.966;7.094;2023-02-02T03:01:12;22.23;;;4.72;;
11988;SDS011;6054;50.966;7.094;2023-02-02T03:03:48;23.40;;;4.35;;
11988;SDS011;6054;50.966;7.094;2023-02-02T03:06:26;17.90;;;4.50;;
11988;SDS011;6054;50.966;7.094;2023-02-02T03:08:57;15.25;;;4.15;;
11988;SDS011;6054;50.966;7.094;2023-02-02T03:11:27;19.17;;;5.05;;
11988;SDS011;6054;50.966;7.094;2023-02-02T03:13:54;21.40;;;4.13;;
11988;SDS011;6054;50.966;7.094;2023-02-02T03:16:21;15.60;;;4.75;;
11988;SDS011;6054;50.966;7.094;2023-02-02T03:18:50;16.42;;;4.20;;
11988;SDS011;6054;50.966;7.094;2023-02-02T03:21:16;19.02;;;4.43;;
11988;SDS011;6054;50.966;7.094;2023-02-02T03:23:43;17.45;;;4.53;;
11988;SDS011;6054;50.966;7.094;2023-02-02T03:26:10;19.23;;;4.28;;
11988;SDS011;6054;50.966;7.094;2023-02-02T03:28:36;21.73;;;4.72;;
11988;SDS011;6054;50.966;7.094;2023-02-02T03:31:03;21.33;;;5.05;;
11988;SDS011;6054;50.966;7.094;2023-02-02T03:33:30;20.27;;;4.40;;
11988;SDS011;6054;50.966;7.094;2023-02-02T03:36:01;19.38;;;5.53;;
11988;SDS011;6054;50.966;7.094;2023-02-02T03:38:29;22.23;;;6.00;;
11988;SDS011;6054;50.966;7.094;2023-02-02T03:40:56;23.63;;;5.25;;
11988;SDS011;6054;50.966;7.094;2023-02-02T03:43:23;21.00;;;4.93;;
11988;SDS011;6054;50.966;7.094;2023-02-02T03:45:54;23.45;;;5.75;;
11988;SDS011;6054;50.966;7.094;2023-02-02T03:48:21;23.00;;;5.32;;
11988;SDS011;6054;50.966;7.094;2023-02-02T03:50:48;21.17;;;5.40;;
11988;SDS011;6054;50.966;7.094;2023-02-02T03:53:16;22.98;;;5.05;;
11988;SDS011;6054;50.966;7.094;2023-02-02T03:55:43;17.25;;;5.25;;
11988;SDS011;6054;50.966;7.094;2023-02-02T03:58:09;12.48;;;4.70;;
11988;SDS011;6054;50.966;7.094;2023-02-02T04:00:36;22.98;;;4.88;;
11988;SDS011;6054;50.966;7.094;2023-02-02T04:03:03;18.02;;;4.72;;
11988;SDS011;6054;50.966;7.094;2023-02-02T04:05:30;20.27;;;5.07;;
11988;SDS011;6054;50.966;7.094;2023-02-02T04:07:56;20.73;;;5.35;;
11988;SDS011;6054;50.966;7.094;2023-02-02T04:10:25;27.70;;;5.78;;
11988;SDS011;6054;50.966;7.094;2023-02-02T04:12:51;15.43;;;4.70;;
11988;SDS011;6054;50.966;7.094;2023-02-02T04:15:18;21.30;;;5.53;;
11988;SDS011;6054;50.966;7.094;2023-02-02T04:17:45;23.67;;;5.80;;
11988;SDS011;6054;50.966;7.094;2023-02-02T04:20:11;23.15;;;6.13;;
11988;SDS011;6054;50.966;7.094;2023-02-02T04:22:38;24.48;;;4.75;;
11988;SDS011;6054;50.966;7.094;2023-02-02T04:25:05;24.40;;;5.70;;
11988;SDS011;6054;50.966;7.094;2023-02-02T04:27:34;19.35;;;5.07;;
11988;SDS011;6054;50.966;7.094;2023-02-02T04:30:00;17.30;;;5.00;;
11988;SDS011;6054;50.966;7.094;2023-02-02T04:32:27;15.50;;;5.05;;
11988;SDS011;6054;50.966;7.094;2023-02-02T04:34:54;28.25;;;5.70;;
11988;SDS011;6054;50.966;7.094;2023-02-02T04:37:21;26.75;;;5.68;;
11988;SDS011;6054;50.966;7.094;2023-02-02T04:39:47;18.63;;;5.72;;
11988;SDS011;6054;50.966;7.094;2023-02-02T04:42:14;21.40;;;5.70;;
11988;SDS011;6054;50.966;7.094;2023-02-02T04:44:42;16.50;;;5.97;;
11988;SDS011;6054;50.966;7.094;2023-02-02T04:47:13;22.48;;;5.32;;
11988;SDS011;6054;50.966;7.094;2023-02-02T04:49:43;22.88;;;6.22;;
11988;SDS011;6054;50.966;7.094;2023-02-02T04:52:10;22.40;;;5.70;;
11988;SDS011;6054;50.966;7.094;2023-02-02T04:54:37;17.40;;;5.50;;
11988;SDS011;6054;50.966;7.094;2023-02-02T04:57:04;24.33;;;6.80;;
11988;SDS011;6054;50.966;7.094;2023-02-02T04:59:30;23.80;;;6.43;;
11988;SDS011;6054;50.966;7.094;2023-02-02T05:01:59;28.45;;;6.50;;
11988;SDS011;6054;50.966;7.094;2023-02-02T05:04:26;27.52;;;6.05;;
11988;SDS011;6054;50.966;7.094;2023-02-02T05:06:53;25.10;;;6.75;;
11988;SDS011;6054;50.966;7.094;2023-02-02T05:09:20;25.33;;;6.20;;
11988;SDS011;6054;50.966;7.094;2023-02-02T05:11:47;22.83;;;7.03;;
11988;SDS011;6054;50.966;7.094;2023-02-02T05:14:13;18.85;;;6.50;;
11988;SDS011;6054;50.966;7.094;2023-02-02T05:16:42;18.58;;;6.03;;
11988;SDS011;6054;50.966;7.094;2023-02-02T05:19:11;21.13;;;5.97;;
11988;SDS011;6054;50.966;7.094;2023-02-02T05:21:40;18.00;;;6.18;;
11988;SDS011;6054;50.966;7.094;2023-02-02T05:24:08;18.98;;;5.88;;
11988;SDS011;6054;50.966;7.094;2023-02-02T05:26:35;21.15;;;5.80;;
11988;SDS011;6054;50.966;7.094;2023-02-02T05:29:02;22.10;;;6.00;;
11988;SDS011;6054;50.966;7.094;2023-02-02T05:31:30;25.13;;;5.85;;
11988;SDS011;6054;50.966;7.094;2023-02-02T05:33:57;23.95;;;6.13;;
11988;SDS011;6054;50.966;7.094;2023-02-02T05:36:25;23.40;;;5.90;;
11988;SDS011;6054;50.966;7.094;2023-02-02T05:38:52;27.70;;;5.82;;
11988;SDS011;6054;50.966;7.094;2023-02-02T05:41:19;18.40;;;5.38;;
11988;SDS011;6054;50.966;7.094;2023-02-02T05:43:46;28.17;;;5.50;;
11988;SDS011;6054;50.966;7.094;2023-02-02T05:46:12;19.67;;;4.97;;
11988;SDS011;6054;50.966;7.094;2023-02-02T05:48:39;26.60;;;5.95;;
11988;SDS011;6054;50.966;7.094;2023-02-02T05:51:08;23.98;;;6.38;;
11988;SDS011;6054;50.966;7.094;2023-02-02T05:53:38;19.13;;;5.45;;
11988;SDS011;6054;50.966;7.094;2023-02-02T05:56:05;21.05;;;6.93;;
11988;SDS011;6054;50.966;7.094;2023-02-02T05:58:32;23.50;;;5.95;;
11988;SDS011;6054;50.966;7.094;2023-02-02T06:00:59;17.58;;;6.32;;
11988;SDS011;6054;50.966;7.094;2023-02-02T06:03:26;19.48;;;6.45;;
11988;SDS011;6054;50.966;7.094;2023-02-02T06:05:52;26.40;;;7.72;;
11988;SDS011;6054;50.966;7.094;2023-02-02T06:08:19;23.08;;;6.63;;
11988;SDS011;6054;50.966;7.094;2023-02-02T06:10:47;21.75;;;6.25;;
11988;SDS011;6054;50.966;7.094;2023-02-02T06:13:14;25.25;;;6.60;;
11988;SDS011;6054;50.966;7.094;2023-02-02T06:15:41;19.52;;;6.07;;
11988;SDS011;6054;50.966;7.094;2023-02-02T06:18:08;21.33;;;6.47;;
11988;SDS011;6054;50.966;7.094;2023-02-02T06:20:35;22.35;;;6.82;;
11988;SDS011;6054;50.966;7.094;2023-02-02T06:23:02;26.80;;;6.65;;
11988;SDS011;6054;50.966;7.094;2023-02-02T06:25:29;18.88;;;5.63;;
11988;SDS011;6054;50.966;7.094;2023-02-02T06:27:57;20.02;;;6.40;;
11988;SDS011;6054;50.966;7.094;2023-02-02T06:30:25;17.35;;;6.00;;
11988;SDS011;6054;50.966;7.094;2023-02-02T06:32:52;22.15;;;5.82;;
11988;SDS011;6054;50.966;7.094;2023-02-02T06:35:19;16.92;;;6.55;;
11988;SDS011;6054;50.966;7.094;2023-02-02T06:37:46;23.23;;;6.43;;
11988;SDS011;6054;50.966;7.094;2023-02-02T06:40:13;16.65;;;6.70;;
11988;SDS011;6054;50.966;7.094;2023-02-02T06:42:40;19.02;;;5.75;;
11988;SDS011;6054;50.966;7.094;2023-02-02T06:45:09;17.35;;;7.40;;
11988;SDS011;6054;50.966;7.094;2023-02-02T06:47:36;22.42;;;6.60;;
11988;SDS011;6054;50.966;7.094;2023-02-02T06:50:03;16.88;;;6.30;;
11988;SDS011;6054;50.966;7.094;2023-02-02T06:52:30;21.33;;;7.20;;
11988;SDS011;6054;50.966;7.094;2023-02-02T06:54:57;16.98;;;6.68;;
11988;SDS011;6054;50.966;7.094;2023-02-02T06:57:23;23.35;;;6.65;;
11988;SDS011;6054;50.966;7.094;2023-02-02T06:59:50;19.50;;;6.22;;
11988;SDS011;6054;50.966;7.094;2023-02-02T07:02:18;10.88;;;5.45;;
11988;SDS011;6054;50.966;7.094;2023-02-02T07:04:47;19.45;;;6.38;;
11988;SDS011;6054;50.966;7.094;2023-02-02T07:07:14;22.52;;;6.75;;
11988;SDS011;6054;50.966;7.094;2023-02-02T07:09:40;17.50;;;7.40;;
11988;SDS011;6054;50.966;7.094;2023-02-02T07:12:07;19.85;;;6.53;;
11988;SDS011;6054;50.966;7.094;2023-02-02T07:14:34;21.13;;;6.88;;
11988;SDS011;6054;50.966;7.094;2023-02-02T07:17:01;15.27;;;5.55;;
11988;SDS011;6054;50.966;7.094;2023-02-02T07:19:29;16.13;;;5.95;;
11988;SDS011;6054;50.966;7.094;2023-02-02T07:21:57;15.90;;;6.05;;
11988;SDS011;6054;50.966;7.094;2023-02-02T07:24:24;18.85;;;6.07;;
11988;SDS011;6054;50.966;7.094;2023-02-02T07:26:52;18.27;;;5.43;;
11988;SDS011;6054;50.966;7.094;2023-02-02T07:29:19;23.88;;;7.05;;
11988;SDS011;6054;50.966;7.094;2023-02-02T07:31:46;14.60;;;6.10;;
11988;SDS011;6054;50.966;7.094;2023-02-02T07:34:13;18.13;;;6.55;;
11988;SDS011;6054;50.966;7.094;2023-02-02T07:36:41;17.88;;;6.70;;
11988;SDS011;6054;50.966;7.094;2023-02-02T07:39:07;20.85;;;6.78;;
11988;SDS011;6054;50.966;7.094;2023-02-02T07:41:34;20.90;;;6.85;;
11988;SDS011;6054;50.966;7.094;2023-02-02T07:44:02;20.08;;;7.68;;
11988;SDS011;6054;50.966;7.094;2023-02-02T07:46:29;19.02;;;6.78;;
11988;SDS011;6054;50.966;7.094;2023-02-02T07:48:56;18.58;;;6.00;;
11988;SDS011;6054;50.966;7.094;2023-02-02T07:51:24;18.55;;;6.80;;
11988;SDS011;6054;50.966;7.094;2023-02-02T07:53:53;27.75;;;8.40;;
11988;SDS011;6054;50.966;7.094;2023-02-02T07:56:23;13.68;;;6.70;;
11988;SDS011;6054;50.966;7.094;2023-02-02T07:58:51;16.63;;;6.68;;
11988;SDS011;6054;50.966;7.094;2023-02-02T08:01:19;17.90;;;6.28;;
11988;SDS011;6054;50.966;7.094;2023-02-02T08:03:47;14.32;;;6.32;;
11988;SDS011;6054;50.966;7.094;2023-02-02T08:06:15;19.58;;;6.40;;
11988;SDS011;6054;50.966;7.094;2023-02-02T08:08:44;17.90;;;6.97;;
11988;SDS011;6054;50.966;7.094;2023-02-02T08:11:12;25.02;;;6.72;;
11988;SDS011;6054;50.966;7.094;2023-02-02T08:13:41;13.52;;;6.03;;
11988;SDS011;6054;50.966;7.094;2023-02-02T08:16:09;16.42;;;6.43;;
11988;SDS011;6054;50.966;7.094;2023-02-02T08:18:36;11.00;;;5.72;;
11988;SDS011;6054;50.966;7.094;2023-02-02T08:21:04;16.45;;;7.22;;
11988;SDS011;6054;50.966;7.094;2023-02-02T08:23:33;16.05;;;6.72;;
11988;SDS011;6054;50.966;7.094;2023-02-02T08:26:04;18.13;;;6.75;;
11988;SDS011;6054;50.966;7.094;2023-02-02T08:28:34;22.95;;;7.70;;
11988;SDS011;6054;50.966;7.094;2023-02-02T08:31:05;16.08;;;6.53;;
11988;SDS011;6054;50.966;7.094;2023-02-02T08:33:33;19.98;;;6.75;;
11988;SDS011;6054;50.966;7.094;2023-02-02T08:36:00;15.98;;;7.05;;
11988;SDS011;6054;50.966;7.094;2023-02-02T08:38:27;17.85;;;7.28;;
11988;SDS011;6054;50.966;7.094;2023-02-02T08:40:53;17.38;;;6.90;;
11988;SDS011;6054;50.966;7.094;2023-02-02T08:43:21;16.35;;;7.30;;
11988;SDS011;6054;50.966;7.094;2023-02-02T08:45:50;10.73;;;6.82;;
11988;SDS011;6054;50.966;7.094;2023-02-02T08:48:17;17.10;;;7.00;;
11988;SDS011;6054;50.966;7.094;2023-02-02T08:50:50;20.95;;;8.07;;
11988;SDS011;6054;50.966;7.094;2023-02-02T08:53:17;15.70;;;6.75;;
11988;SDS011;6054;50.966;7.094;2023-02-02T08:55:44;14.88;;;7.10;;
11988;SDS011;6054;50.966;7.094;2023-02-02T08:58:10;15.40;;;7.50;;
11988;SDS011;6054;50.966;7.094;2023-02-02T09:00:37;23.50;;;6.93;;
11988;SDS011;6054;50.966;7.094;2023-02-02T09:03:05;19.75;;;7.05;;
11988;SDS011;6054;50.966;7.094;2023-02-02T09:05:32;19.88;;;7.30;;
11988;SDS011;6054;50.966;7.094;2023-02-02T09:08:02;13.95;;;7.50;;
11988;SDS011;6054;50.966;7.094;2023-02-02T09:10:29;21.63;;;8.52;;
11988;SDS011;6054;50.966;7.094;2023-02-02T09:12:56;15.23;;;7.05;;
11988;SDS011;6054;50.966;7.094;2023-02-02T09:15:23;22.50;;;7.75;;
11988;SDS011;6054;50.966;7.094;2023-02-02T09:17:50;19.27;;;7.10;;
11988;SDS011;6054;50.966;7.094;2023-02-02T09:20:19;16.73;;;7.60;;
11988;SDS011;6054;50.966;7.094;2023-02-02T09:22:46;19.23;;;7.10;;
11988;SDS011;6054;50.966;7.094;2023-02-02T09:25:12;23.23;;;8.65;;
11988;SDS011;6054;50.966;7.094;2023-02-02T09:27:39;13.95;;;7.70;;
11988;SDS011;6054;50.966;7.094;2023-02-02T09:30:07;19.27;;;6.80;;
11988;SDS011;6054;50.966;7.094;2023-02-02T09:32:34;13.85;;;6.90;;
11988;SDS011;6054;50.966;7.094;2023-02-02T09:35:01;21.23;;;8.20;;
11988;SDS011;6054;50.966;7.094;2023-02-02T09:37:29;22.92;;;7.75;;
11988;SDS011;6054;50.966;7.094;2023-02-02T09:39:58;12.95;;;7.20;;
11988;SDS011;6054;50.966;7.094;2023-02-02T09:42:38;17.52;;;7.72;;
11988;SDS011;6054;50.966;7.094;2023-02-02T09:45:17;17.38;;;7.70;;
11988;SDS011;6054;50.966;7.094;2023-02-02T09:47:51;28.63;;;8.25;;
11988;SDS011;6054;50.966;7.094;2023-02-02T09:50:21;20.63;;;7.93;;
11988;SDS011;6054;50.966;7.094;2023-02-02T09:53:03;14.10;;;7.07;;
11988;SDS011;6054;50.966;7.094;2023-02-02T09:55:36;15.70;;;7.28;;
11988;SDS011;6054;50.966;7.094;2023-02-02T09:58:06;25.05;;;8.73;;
11988;SDS011;6054;50.966;7.094;2023-02-02T10:00:41;20.67;;;7.75;;
11988;SDS011;6054;50.966;7.094;2023-02-02T10:03:12;12.95;;;7.88;;
11988;SDS011;6054;50.966;7.094;2023-02-02T10:05:44;17.85;;;7.88;;
11988;SDS011;6054;50.966;7.094;2023-02-02T10:08:20;15.40;;;7.45;;
11988;SDS011;6054;50.966;7.094;2023-02-02T10:10:56;17.20;;;6.68;;
11988;SDS011;6054;50.966;7.094;2023-02-02T10:13:27;15.98;;;6.70;;
11988;SDS011;6054;50.966;7.094;2023-02-02T10:15:59;14.95;;;6.88;;
11988;SDS011;6054;50.966;7.094;2023-02-02T10:18:36;15.53;;;7.67;;
11988;SDS011;6054;50.966;7.094;2023-02-02T10:21:09;17.85;;;7.90;;
11988;SDS011;6054;50.966;7.094;2023-02-02T10:23:41;18.70;;;7.90;;
11988;SDS011;6054;50.966;7.094;2023-02-02T10:26:12;17.65;;;8.05;;
11988;SDS011;6054;50.966;7.094;2023-02-02T10:28:44;17.17;;;7.22;;
11988;SDS011;6054;50.966;7.094;2023-02-02T10:31:34;14.25;;;6.97;;
11988;SDS011;6054;50.966;7.094;2023-02-02T10:34:09;16.92;;;7.43;;
11988;SDS011;6054;50.966;7.094;2023-02-02T10:36:44;15.65;;;7.97;;
11988;SDS011;6054;50.966;7.094;2023-02-02T10:39:24;20.02;;;7.50;;
11988;SDS011;6054;50.966;7.094;2023-02-02T10:42:05;10.82;;;6.53;;
11988;SDS011;6054;50.966;7.094;2023-02-02T10:44:43;16.08;;;7.55;;
11988;SDS011;6054;50.966;7.094;2023-02-02T10:47:15;17.25;;;7.97;;
11988;SDS011;6054;50.966;7.094;2023-02-02T10:49:50;15.35;;;7.80;;
11988;SDS011;6054;50.966;7.094;2023-02-02T10:52:27;15.77;;;7.90;;
11988;SDS011;6054;50.966;7.094;2023-02-02T10:54:58;18.95;;;7.88;;
11988;SDS011;6054;50.966;7.094;2023-02-02T10:57:33;14.13;;;8.43;;
11988;SDS011;6054;50.966;7.094;2023-02-02T11:00:14;19.52;;;8.20;;
11988;SDS011;6054;50.966;7.094;2023-02-02T11:02:47;17.42;;;8.68;;
11988;SDS011;6054;50.966;7.094;2023-02-02T11:05:17;15.13;;;7.57;;
11988;SDS011;6054;50.966;7.094;2023-02-02T11:08:09;10.35;;;6.85;;
11988;SDS011;6054;50.966;7.094;2023-02-02T11:10:41;17.45;;;7.55;;
11988;SDS011;6054;50.966;7.094;2023-02-02T11:13:10;16.25;;;7.97;;
11988;SDS011;6054;50.966;7.094;2023-02-02T11:15:40;20.13;;;7.65;;
11988;SDS011;6054;50.966;7.094;2023-02-02T11:18:18;14.43;;;7.50;;
11988;SDS011;6054;50.966;7.094;2023-02-02T11:20:52;17.98;;;8.30;;
11988;SDS011;6054;50.966;7.094;2023-02-02T11:23:20;22.15;;;7.78;;
11988;SDS011;6054;50.966;7.094;2023-02-02T11:25:57;15.82;;;7.03;;
11988;SDS011;6054;50.966;7.094;2023-02-02T11:28:25;15.00;;;6.93;;
11988;SDS011;6054;50.966;7.094;2023-02-02T11:30:55;19.63;;;7.75;;
11988;SDS011;6054;50.966;7.094;2023-02-02T11:33:26;15.95;;;7.32;;
11988;SDS011;6054;50.966;7.094;2023-02-02T11:35:55;20.98;;;7.18;;
11988;SDS011;6054;50.966;7.094;2023-02-02T11:38:23;19.15;;;7.07;;
11988;SDS011;6054;50.966;7.094;2023-02-02T11:40:54;16.17;;;7.72;;
11988;SDS011;6054;50.966;7.094;2023-02-02T11:43:27;21.98;;;7.15;;
11988;SDS011;6054;50.966;7.094;2023-02-02T11:45:57;14.27;;;7.90;;
11988;SDS011;6054;50.966;7.094;2023-02-02T11:48:28;11.98;;;6.40;;
11988;SDS011;6054;50.966;7.094;2023-02-02T11:50:57;18.90;;;6.97;;
11988;SDS011;6054;50.966;7.094;2023-02-02T11:53:27;13.50;;;6.55;;
11988;SDS011;6054;50.966;7.094;2023-02-02T11:55:58;14.95;;;6.10;;
11988;SDS011;6054;50.966;7.094;2023-02-02T11:58:27;16.40;;;6.05;;
11988;SDS011;6054;50.966;7.094;2023-02-02T12:00:56;17.15;;;6.35;;
11988;SDS011;6054;50.966;7.094;2023-02-02T12:03:26;12.88;;;5.80;;
11988;SDS011;6054;50.966;7.094;2023-02-02T12:05:58;13.75;;;6.13;;
11988;SDS011;6054;50.966;7.094;2023-02-02T12:08:26;11.73;;;6.05;;
11988;SDS011;6054;50.966;7.094;2023-02-02T12:10:56;15.60;;;6.13;;
11988;SDS011;6054;50.966;7.094;2023-02-02T12:13:33;10.52;;;5.85;;
11988;SDS011;6054;50.966;7.094;2023-02-02T12:16:21;19.15;;;6.05;;
11988;SDS011;6054;50.966;7.094;2023-02-02T12:19:12;15.30;;;6.05;;
11988;SDS011;6054;50.966;7.094;2023-02-02T12:21:52;18.15;;;6.47;;
11988;SDS011;6054;50.966;7.094;2023-02-02T12:24:28;10.40;;;5.95;;
11988;SDS011;6054;50.966;7.094;2023-02-02T12:27:00;13.20;;;5.72;;
11988;SDS011;6054;50.966;7.094;2023-02-02T12:29:50;16.60;;;6.30;;
11988;SDS011;6054;50.966;7.094;2023-02-02T12:32:40;13.45;;;5.32;;
11988;SDS011;6054;50.966;7.094;2023-02-02T12:35:18;11.73;;;5.50;;
11988;SDS011;6054;50.966;7.094;2023-02-02T12:37:54;15.65;;;5.88;;
11988;SDS011;6054;50.966;7.094;2023-02-02T12:43:21;7.15;;;5.50;;
11988;SDS011;6054;50.966;7.094;2023-02-02T12:46:07;16.67;;;5.78;;
11988;SDS011;6054;50.966;7.094;2023-02-02T12:48:58;13.95;;;5.68;;
11988;SDS011;6054;50.966;7.094;2023-02-02T12:51:40;10.80;;;4.80;;
11988;SDS011;6054;50.966;7.094;2023-02-02T12:54:21;15.75;;;5.82;;
11988;SDS011;6054;50.966;7.094;2023-02-02T12:57:05;9.75;;;5.15;;
11988;SDS011;6054;50.966;7.094;2023-02-02T12:59:50;11.32;;;6.43;;
11988;SDS011;6054;50.966;7.094;2023-02-02T13:02:29;10.77;;;5.13;;
11988;SDS011;6054;50.966;7.094;2023-02-02T13:05:04;9.27;;;5.50;;
11988;SDS011;6054;50.966;7.094;2023-02-02T13:07:47;10.88;;;5.25;;
11988;SDS011;6054;50.966;7.094;2023-02-02T13:10:20;10.82;;;4.70;;
11988;SDS011;6054;50.966;7.094;2023-02-02T13:12:54;10.80;;;5.38;;
11988;SDS011;6054;50.966;7.094;2023-02-02T13:15:28;12.48;;;5.38;;
11988;SDS011;6054;50.966;7.094;2023-02-02T13:17:59;11.88;;;4.38;;
11988;SDS011;6054;50.966;7.094;2023-02-02T13:20:35;12.40;;;4.88;;
11988;SDS011;6054;50.966;7.094;2023-02-02T13:23:06;11.32;;;5.10;;
11988;SDS011;6054;50.966;7.094;2023-02-02T13:25:39;16.88;;;4.82;;
11988;SDS011;6054;50.966;7.094;2023-02-02T13:28:16;8.98;;;4.57;;
11988;SDS011;6054;50.966;7.094;2023-02-02T13:30:50;10.70;;;5.75;;
11988;SDS011;6054;50.966;7.094;2023-02-02T13:33:19;11.23;;;4.35;;
11988;SDS011;6054;50.966;7.094;2023-02-02T13:35:52;11.73;;;4.60;;
11988;SDS011;6054;50.966;7.094;2023-02-02T13:38:22;9.95;;;4.30;;
11988;SDS011;6054;50.966;7.094;2023-02-02T13:40:52;14.50;;;4.57;;
11988;SDS011;6054;50.966;7.094;2023-02-02T13:43:26;10.35;;;3.90;;
11988;SDS011;6054;50.966;7.094;2023-02-02T13:46:02;13.30;;;4.25;;
11988;SDS011;6054;50.966;7.094;2023-02-02T13:48:38;10.73;;;4.95;;
11988;SDS011;6054;50.966;7.094;2023-02-02T13:51:26;10.98;;;4.40;;
11988;SDS011;6054;50.966;7.094;2023-02-02T13:54:29;9.10;;;4.93;;
11988;SDS011;6054;50.966;7.094;2023-02-02T13:57:29;7.20;;;3.50;;
11988;SDS011;6054;50.966;7.094;2023-02-02T14:00:17;10.38;;;5.18;;
11988;SDS011;6054;50.966;7.094;2023-02-02T14:02:50;9.15;;;3.53;;
11988;SDS011;6054;50.966;7.094;2023-02-02T14:05:21;10.05;;;3.92;;
11988;SDS011;6054;50.966;7.094;2023-02-02T14:07:53;7.78;;;3.50;;
11988;SDS011;6054;50.966;7.094;2023-02-02T14:10:25;8.43;;;3.97;;
11988;SDS011;6054;50.966;7.094;2023-02-02T14:13:04;11.05;;;3.85;;
11988;SDS011;6054;50.966;7.094;2023-02-02T14:15:54;7.68;;;3.08;;
11988;SDS011;6054;50.966;7.094;2023-02-02T14:24:42;8.88;;;3.20;;
11988;SDS011;6054;50.966;7.094;2023-02-02T14:30:29;8.45;;;3.28;;
11988;SDS011;6054;50.966;7.094;2023-02-02T14:36:03;12.50;;;2.85;;
11988;SDS011;6054;50.966;7.094;2023-02-02T14:38:50;9.75;;;3.30;;
11988;SDS011;6054;50.966;7.094;2023-02-02T14:41:30;9.20;;;2.90;;
11988;SDS011;6054;50.966;7.094;2023-02-02T14:44:27;7.00;;;3.10;;
11988;SDS011;6054;50.966;7.094;2023-02-02T14:46:54;9.65;;;3.38;;
11988;SDS011;6054;50.966;7.094;2023-02-02T14:49:22;7.32;;;2.83;;
11988;SDS011;6054;50.966;7.094;2023-02-02T14:51:54;6.65;;;2.50;;
11988;SDS011;6054;50.966;7.094;2023-02-02T14:54:30;7.47;;;2.75;;
11988;SDS011;6054;50.966;7.094;2023-02-02T14:57:01;10.02;;;2.88;;
11988;SDS011;6054;50.966;7.094;2023-02-02T14:59:32;11.23;;;3.95;;
11988;SDS011;6054;50.966;7.094;2023-02-02T15:02:05;11.00;;;2.88;;
11988;SDS011;6054;50.966;7.094;2023-02-02T15:04:39;6.63;;;2.72;;
11988;SDS011;6054;50.966;7.094;2023-02-02T15:13:19;7.55;;;2.30;;
11988;SDS011;6054;50.966;7.094;2023-02-02T15:15:47;4.43;;;2.20;;
11988;SDS011;6054;50.966;7.094;2023-02-02T15:18:18;8.68;;;2.38;;
11988;SDS011;6054;50.966;7.094;2023-02-02T15:20:52;12.45;;;3.15;;
11988;SDS011;6054;50.966;7.094;2023-02-02T15:23:23;10.05;;;2.40;;
11988;SDS011;6054;50.966;7.094;2023-02-02T15:25:57;9.43;;;2.00;;
11988;SDS011;6054;50.966;7.094;2023-02-02T15:28:33;10.57;;;2.70;;
11988;SDS011;6054;50.966;7.094;2023-02-02T15:31:06;5.22;;;2.33;;
11988;SDS011;6054;50.966;7.094;2023-02-02T15:33:41;8.73;;;2.30;;
11988;SDS011;6054;50.966;7.094;2023-02-02T15:36:13;8.18;;;2.30;;
11988;SDS011;6054;50.966;7.094;2023-02-02T15:38:44;5.32;;;2.50;;
11988;SDS011;6054;50.966;7.094;2023-02-02T15:41:15;7.97;;;2.50;;